A- A+ FrançaisEnglishEspañol中国

Services sur Internet Soldes sur Internet Des idées de cadeaux Météo Météo aéro

La météo à : Autours de vous Rion-Des-Landes Tarbes-Lourdes-PyrénéesToulouse-BlagnacBiarritz-Bayonne-Anglet

La météo aéronautique pour les pilotes, la préparation du vol avec les METAR (METeorological Aerodrome Report, message d'observation des conditions météorologiques pour l'aviation) et Les TAF (Terminal Aerodrome Forecast : message de prévision à court terme des conditions météorologiques pour l'aviation). Et les autres ressources comme les VAC (Visual Approch Chart) et les NOTAM (Notice To Airman) pour préprer les vols.

Aéroport Newcastle (Royaume-Uni) / OACI EGNT/ IATA NCL

L'altitude de l'aéroport Newcastle est de 81 m = 266 ft. Il est situé à proximité de Newcastle (Royaume-Uni). La météo générale à 5 jours est disponible pour Woolsington situé à 2 km.

METAR de l'aéroport Newcastle - EGNT

EGNT 091450Z 31008KT 9999 FEW040 04/M01 Q1015

Décodage du METAR de l'aéroport Newcastle (GB)

METAR émis par EGNT le lundi 9 décembre 2019 à 14:50 heure TU, il y a 17 minutes.

La visibilité est de supérieure à 10 km = supérieure à 6.2 sm.

La température est de 4°C = 39 °F et le point rosée est de -1°C = 30 °F . Ce qui correspond à 70% d'humidité relative.

Le QNH est de 1015 hPa = 29.97 inHg

Vent de 8 kt = 15 km/h, orienté à 310°.

Nuages : Quelques nuages à 4000 ft = 1220 mètres.

TAF de l'aéroport Newcastle - EGNT

EGNT 091104Z 0912/1012 32015G25KT 9999 FEW035 BECMG 0913/0916 28010KT BECMG 0917/0920 22005KT BECMG 0923/1002 16010KT BECMG 1006/1009 17015G25KT TEMPO 1006/1012 18023G35KT 8000 -RA PROB30 TEMPO 1010/1012 19028G45KT RA

EGNT 091104Z 0912/1012 32015G25KT 9999 quelques nuages à 035 devenant 0913/0916 28010KT devenant 0917/0920 22005KT devenant 0923/1002 16010KT devenant 1006/1009 17015G25KT temporairement 1006/1012 18023G35KT 8000 faible RA probabilité de 30% d'avoir temporairement 1010/1012 19028G45KT pluie

Aéroport à proximité de Newcastle

Météo générale à 5 jours à Woolsington (2 km)Aéroport Teesside (61 km)Aéroport Carlisle (72 km)Aéroport Leeming (83 km)Aéroport Topcliffe (95 km)Aéroport Dishforth (102 km)Aéroport Linton on Ouse (114 km)

VAC de l'aéroport Newcastle - EGNT

La carte d'approche à vue (VAC Visual Approah Chart) est fournie sans aucune garantie de son actualité. Le pilote est le seul responsable de la vérification de sa validité avant de l'utiliser opérationnellement pour préparer un vol ou l'utiliser lors de sa navigation.

VAC de EGNT

Vue aérienne de l'aéroport Newcastle

NOTAM de l'aéroport Newcastle

Les NOTAM sont fournis sans aucune garantie de leur actualité. Le pilote est le seul responsable de la vérification de sa validité avant de l'utiliser opérationnellement pour préparer un vol ou l'utiliser lors de sa navigation.

Pas de NOTAM

Sources des données